createdAt,value
2023-04-26T00:00:50.682Z,99093.02
2023-04-26T00:03:17.710Z,99086.41
2023-04-26T00:05:44.835Z,99088.30
2023-04-26T00:08:11.924Z,99091.11
2023-04-26T00:10:40.862Z,99093.21
2023-04-26T00:13:08.298Z,99091.50
2023-04-26T00:15:35.217Z,99096.17
2023-04-26T00:18:01.960Z,99098.25
2023-04-26T00:20:29.042Z,99100.22
2023-04-26T00:22:55.915Z,99103.41
2023-04-26T00:25:22.680Z,99103.66
2023-04-26T00:27:50.053Z,99108.34
2023-04-26T00:30:16.810Z,99110.21
2023-04-26T00:32:44.186Z,99107.94
2023-04-26T00:35:11.087Z,99107.98
2023-04-26T00:37:37.851Z,99107.55
2023-04-26T00:40:09.187Z,99105.72
2023-04-26T00:42:36.118Z,99106.41
2023-04-26T00:45:04.086Z,99107.80
2023-04-26T00:47:31.320Z,99107.55
2023-04-26T00:49:58.404Z,99109.27
2023-04-26T00:52:25.648Z,99110.83
2023-04-26T00:54:52.799Z,99107.29
2023-04-26T00:57:19.598Z,99107.45
2023-04-26T00:59:46.362Z,99106.56
2023-04-26T01:02:16.334Z,99108.53
2023-04-26T01:04:45.399Z,99111.73
2023-04-26T01:07:12.112Z,99105.98
2023-04-26T01:09:38.864Z,99102.52
2023-04-26T01:12:06.729Z,99105.71
2023-04-26T01:14:36.691Z,99105.85
2023-04-26T01:17:03.801Z,99103.80
2023-04-26T01:19:30.743Z,99107.52
2023-04-26T01:21:57.530Z,99106.41
2023-04-26T01:24:24.343Z,99103.36
2023-04-26T01:26:51.711Z,99100.99
2023-04-26T01:29:21.385Z,99105.29
2023-04-26T01:31:48.469Z,99099.38
2023-04-26T01:34:15.806Z,99095.93
2023-04-26T01:36:46.143Z,99093.25
2023-04-26T01:39:13.638Z,99090.95
2023-04-26T01:41:40.614Z,99090.48
2023-04-26T01:44:07.450Z,99093.23
2023-04-26T01:46:34.214Z,99091.61
2023-04-26T01:49:01.148Z,99084.94
2023-04-26T01:51:30.258Z,99087.52
2023-04-26T01:53:57.096Z,99086.90
2023-04-26T01:56:25.257Z,99091.50
2023-04-26T01:58:53.396Z,99090.52
2023-04-26T02:01:20.329Z,99088.13
2023-04-26T02:03:47.109Z,99088.58
2023-04-26T02:06:13.956Z,99088.15
2023-04-26T02:08:40.893Z,99083.55
2023-04-26T02:11:07.601Z,99080.98
2023-04-26T02:13:36.133Z,99080.36
2023-04-26T02:16:03.730Z,99083.94
2023-04-26T02:18:30.742Z,99081.05
2023-04-26T02:20:57.579Z,99086.19
2023-04-26T02:23:24.833Z,99079.65
2023-04-26T02:25:51.982Z,99082.31
2023-04-26T02:28:18.722Z,99084.53
2023-04-26T02:30:45.560Z,99085.23
2023-04-26T02:33:12.711Z,99087.17
2023-04-26T02:35:39.529Z,99088.63
2023-04-26T02:38:07.383Z,99086.69
2023-04-26T02:40:34.185Z,99084.73
2023-04-26T02:43:01.206Z,99083.50
2023-04-26T02:45:28.260Z,99080.86
2023-04-26T02:47:55.064Z,99079.06
2023-04-26T02:50:22.046Z,99078.04
2023-04-26T02:52:49.262Z,99076.65
2023-04-26T02:55:16.359Z,99068.33
2023-04-26T02:57:43.220Z,99067.27
2023-04-26T03:00:14.128Z,99067.53
2023-04-26T03:02:41.284Z,99068.02
2023-04-26T03:05:09.675Z,99069.55
2023-04-26T03:07:37.107Z,99063.92
2023-04-26T03:10:05.475Z,99061.92
2023-04-26T03:12:32.415Z,99062.87
2023-04-26T03:14:59.996Z,99059.96
2023-04-26T03:17:26.867Z,99061.70
2023-04-26T03:19:53.957Z,99059.14
2023-04-26T03:22:21.204Z,99056.09
2023-04-26T03:24:49.207Z,99058.90
2023-04-26T03:27:16.647Z,99063.17
2023-04-26T03:29:44.359Z,99063.79
2023-04-26T03:32:11.678Z,99060.63
2023-04-26T03:34:38.591Z,99060.30
2023-04-26T03:37:05.773Z,99062.34
2023-04-26T03:39:32.931Z,99064.57
2023-04-26T03:42:01.314Z,99067.02
2023-04-26T03:44:29.280Z,99066.76
2023-04-26T03:46:57.837Z,99068.48
2023-04-26T03:49:24.701Z,99070.13
2023-04-26T03:51:51.599Z,99072.92
2023-04-26T03:54:18.971Z,99073.24
2023-04-26T03:56:45.750Z,99083.77
2023-04-26T03:59:12.561Z,99083.45
2023-04-26T04:01:39.354Z,99082.94
2023-04-26T04:04:06.428Z,99080.17
2023-04-26T04:06:33.389Z,99077.98
2023-04-26T04:09:01.087Z,99075.11
2023-04-26T04:11:27.982Z,99070.87
2023-04-26T04:13:54.758Z,99075.09
2023-04-26T04:16:22.054Z,99073.49
2023-04-26T04:18:49.181Z,99068.83
2023-04-26T04:21:15.984Z,99066.98
2023-04-26T04:23:44.407Z,99065.45
2023-04-26T04:26:12.762Z,99058.41
2023-04-26T04:28:41.705Z,99053.69
2023-04-26T04:31:09.921Z,99052.89
2023-04-26T04:33:37.606Z,99056.72
2023-04-26T04:36:05.141Z,99059.55
2023-04-26T04:38:31.932Z,99058.45
2023-04-26T04:40:58.738Z,99063.95
2023-04-26T04:43:25.688Z,99062.61
2023-04-26T04:45:53.970Z,99063.23
2023-04-26T04:48:21.524Z,99061.61
2023-04-26T04:50:49.508Z,99063.14
2023-04-26T04:53:16.626Z,99059.81
2023-04-26T04:55:43.362Z,99058.94
2023-04-26T04:58:12.361Z,99058.42
2023-04-26T05:00:39.759Z,99059.34
2023-04-26T05:03:16.577Z,99058.66
2023-04-26T05:05:43.696Z,99053.84
2023-04-26T05:08:10.607Z,99050.48
2023-04-26T05:10:37.756Z,99052.21
2023-04-26T05:13:05.643Z,99052.73
2023-04-26T05:15:32.455Z,99052.09
2023-04-26T05:17:59.732Z,99052.55
2023-04-26T05:20:27.057Z,99057.02
2023-04-26T05:22:54.977Z,99056.02
2023-04-26T05:25:22.977Z,99057.97
2023-04-26T05:30:21.344Z,99070.65
2023-04-26T05:33:13.951Z,99071.52
2023-04-26T05:35:47.344Z,99070.79
2023-04-26T05:38:15.347Z,99073.89
2023-04-26T05:40:42.170Z,99083.11
2023-04-26T05:43:08.948Z,99081.58
2023-04-26T05:45:37.346Z,99078.80
2023-04-26T05:48:04.434Z,99075.41
2023-04-26T05:50:37.747Z,99089.58
2023-04-26T05:53:07.222Z,99087.96
2023-04-26T05:55:33.976Z,99084.05
2023-04-26T05:58:01.017Z,99084.32
2023-04-26T06:00:29.000Z,99083.05
2023-04-26T06:02:56.175Z,99085.20
2023-04-26T06:05:23.363Z,99079.12
2023-04-26T06:07:51.968Z,99075.24
2023-04-26T06:10:18.763Z,99079.02
2023-04-26T06:12:46.872Z,99078.44
2023-04-26T06:15:16.618Z,99082.80
2023-04-26T06:17:44.195Z,99086.39
2023-04-26T06:20:11.115Z,99084.89
2023-04-26T06:22:38.213Z,99081.78
2023-04-26T06:25:06.045Z,99082.94
2023-04-26T06:27:33.858Z,99082.69
2023-04-26T06:30:00.641Z,99077.08
2023-04-26T06:32:27.530Z,99072.36
2023-04-26T06:34:55.011Z,99071.77
2023-04-26T06:37:21.729Z,99076.79
2023-04-26T06:39:49.107Z,99078.20
2023-04-26T06:42:15.930Z,99077.61
2023-04-26T06:45:10.033Z,99073.23
2023-04-26T06:47:36.904Z,99079.86
2023-04-26T06:50:04.971Z,99078.59
2023-04-26T06:52:31.741Z,99071.94
2023-04-26T06:55:02.138Z,99077.67
2023-04-26T06:57:28.925Z,99082.83
2023-04-26T06:59:55.806Z,99077.17
2023-04-26T07:02:24.582Z,99080.05
2023-04-26T07:04:52.290Z,99084.54
2023-04-26T07:07:19.252Z,99085.83
2023-04-26T07:09:46.264Z,99087.46
2023-04-26T07:12:13.672Z,99081.48
2023-04-26T07:14:41.523Z,99085.20
2023-04-26T07:17:08.786Z,99086.02
2023-04-26T07:19:35.702Z,99085.21
2023-04-26T07:22:02.538Z,99086.28
2023-04-26T07:24:29.306Z,99082.56
2023-04-26T07:26:56.854Z,99082.49
2023-04-26T07:29:24.068Z,99082.59
2023-04-26T07:31:50.940Z,99087.09
2023-04-26T07:34:17.680Z,99088.08
2023-04-26T07:36:44.433Z,99086.53
2023-04-26T07:39:11.857Z,99079.02
2023-04-26T07:41:38.681Z,99075.27
2023-04-26T07:44:05.468Z,99078.73
2023-04-26T07:46:35.186Z,99079.05
2023-04-26T07:49:01.985Z,99072.20
2023-04-26T07:51:28.826Z,99073.85
2023-04-26T07:53:56.104Z,99078.09
2023-04-26T07:56:24.262Z,99072.69
2023-04-26T07:58:51.783Z,99075.02
2023-04-26T08:01:18.550Z,99077.44
2023-04-26T08:03:45.900Z,99075.85
2023-04-26T08:06:13.082Z,99083.88
2023-04-26T08:08:45.635Z,99089.36
2023-04-26T08:11:12.385Z,99090.21
2023-04-26T08:13:39.211Z,99093.84
2023-04-26T08:16:06.546Z,99094.73
2023-04-26T08:18:33.733Z,99093.94
2023-04-26T08:21:00.572Z,99097.11
2023-04-26T08:23:28.440Z,99094.43
2023-04-26T08:25:55.312Z,99095.95
2023-04-26T08:28:22.211Z,99091.59
2023-04-26T08:30:49.100Z,99092.15
2023-04-26T08:33:16.231Z,99091.10
2023-04-26T08:35:42.970Z,99088.36
2023-04-26T08:38:09.717Z,99085.75
2023-04-26T08:40:36.687Z,99086.05
2023-04-26T08:43:03.464Z,99093.30
2023-04-26T08:45:30.226Z,99104.70
2023-04-26T08:48:04.952Z,99100.78
2023-04-26T08:50:33.640Z,99092.37
2023-04-26T08:53:03.956Z,99091.16
2023-04-26T08:55:31.100Z,99094.98
2023-04-26T08:57:58.008Z,99093.20
2023-04-26T09:00:25.050Z,99098.85
2023-04-26T09:02:53.640Z,99091.65
2023-04-26T09:05:24.394Z,99087.35
2023-04-26T09:07:53.028Z,99084.19
2023-04-26T09:10:23.497Z,99090.67
2023-04-26T09:12:52.482Z,99082.36
2023-04-26T09:15:21.410Z,99081.34
2023-04-26T09:17:49.734Z,99076.95
2023-04-26T09:20:25.324Z,99075.88
2023-04-26T09:23:13.139Z,99074.76
2023-04-26T09:25:39.861Z,99071.67
2023-04-26T09:28:19.790Z,99067.88
2023-04-26T09:30:46.597Z,99073.59
2023-04-26T09:33:13.469Z,99075.56
2023-04-26T09:35:41.937Z,99071.45
2023-04-26T09:38:13.568Z,99075.27
2023-04-26T09:40:48.406Z,99078.89
2023-04-26T09:43:22.065Z,99087.90
2023-04-26T09:46:07.196Z,99085.56
2023-04-26T09:48:34.764Z,99096.21
2023-04-26T09:51:04.609Z,99096.34
2023-04-26T09:53:34.833Z,99102.95
2023-04-26T09:56:08.628Z,99106.64
2023-04-26T09:58:39.806Z,99109.57
2023-04-26T10:01:08.106Z,99110.80
2023-04-26T10:03:35.716Z,99113.55
2023-04-26T10:06:02.960Z,99118.57
2023-04-26T10:08:31.534Z,99121.27
2023-04-26T10:10:58.337Z,99119.55
2023-04-26T10:13:25.098Z,99118.80
2023-04-26T10:15:52.099Z,99121.34
2023-04-26T10:18:18.834Z,99124.43
2023-04-26T10:20:48.030Z,99120.06
2023-04-26T10:23:25.578Z,99118.55
2023-04-26T10:25:53.102Z,99116.73
2023-04-26T10:28:40.100Z,99119.55
2023-04-26T10:31:10.336Z,99117.83
2023-04-26T10:33:37.325Z,99120.86
2023-04-26T10:36:08.589Z,99121.23
2023-04-26T10:38:36.765Z,99115.30
2023-04-26T10:41:29.351Z,99114.05
2023-04-26T10:43:56.436Z,99109.88
2023-04-26T10:46:37.515Z,99110.57
2023-04-26T10:49:14.855Z,99114.34
2023-04-26T10:51:41.800Z,99113.73
2023-04-26T10:54:09.190Z,99113.89
2023-04-26T10:56:39.109Z,99112.23
2023-04-26T10:59:36.379Z,99112.88
2023-04-26T11:02:10.941Z,99110.02
2023-04-26T11:04:53.350Z,99115.69
2023-04-26T11:07:38.868Z,99116.30
2023-04-26T11:10:12.499Z,99111.95
2023-04-26T11:12:42.087Z,99117.53
2023-04-26T11:15:09.166Z,99120.87
2023-04-26T11:17:38.122Z,99123.43
2023-04-26T11:20:10.007Z,99113.52
2023-04-26T11:22:40.072Z,99112.83
2023-04-26T11:25:07.082Z,99121.45
2023-04-26T11:27:33.855Z,99117.86
2023-04-26T11:30:04.507Z,99114.96
2023-04-26T11:32:31.296Z,99113.12
2023-04-26T11:35:00.311Z,99112.61
2023-04-26T11:37:27.169Z,99113.30
2023-04-26T11:39:53.924Z,99111.83
2023-04-26T11:42:24.952Z,99110.06
2023-04-26T11:44:56.313Z,99114.02
2023-04-26T11:47:23.790Z,99119.17
2023-04-26T11:49:50.491Z,99112.82
2023-04-26T11:52:17.214Z,99114.15
2023-04-26T11:54:44.569Z,99112.86
2023-04-26T11:57:17.642Z,99111.67
2023-04-26T11:59:45.008Z,99113.78
2023-04-26T12:02:11.872Z,99107.96
2023-04-26T12:04:41.109Z,99113.70
2023-04-26T12:07:08.575Z,99109.06
2023-04-26T12:09:36.772Z,99104.10
2023-04-26T12:12:07.647Z,99101.54
2023-04-26T12:14:34.889Z,99098.47
2023-04-26T12:17:03.361Z,99099.02
2023-04-26T12:19:34.960Z,99103.61
2023-04-26T12:22:01.865Z,99102.65
2023-04-26T12:24:33.359Z,99100.08
2023-04-26T12:27:04.600Z,99101.59
2023-04-26T12:29:32.169Z,99106.86
2023-04-26T12:31:59.534Z,99106.69
2023-04-26T12:34:26.413Z,99106.83
2023-04-26T12:36:53.513Z,99110.72
2023-04-26T12:39:20.419Z,99112.00
2023-04-26T12:41:47.325Z,99111.17
2023-04-26T12:44:15.634Z,99105.63
2023-04-26T12:46:42.600Z,99111.79
2023-04-26T12:49:09.527Z,99108.21
2023-04-26T12:51:36.375Z,99107.63
2023-04-26T12:54:03.657Z,99105.94
2023-04-26T12:56:30.521Z,99111.80
2023-04-26T12:58:57.316Z,99111.48
2023-04-26T13:01:24.182Z,99110.48
2023-04-26T13:03:51.188Z,99111.00
2023-04-26T13:06:18.205Z,99115.09
2023-04-26T13:08:45.078Z,99108.00
2023-04-26T13:11:12.092Z,99111.42
2023-04-26T13:13:43.935Z,99112.77
2023-04-26T13:16:13.026Z,99112.43
2023-04-26T13:18:40.691Z,99126.59
2023-04-26T13:21:10.618Z,99133.21
2023-04-26T13:23:37.462Z,99134.91
2023-04-26T13:26:07.139Z,99135.97
2023-04-26T13:28:36.153Z,99137.59
2023-04-26T13:31:03.338Z,99132.75
2023-04-26T13:33:30.464Z,99135.02
2023-04-26T13:35:57.204Z,99137.90
2023-04-26T13:38:24.239Z,99138.99
2023-04-26T13:40:51.266Z,99139.63
2023-04-26T13:43:18.964Z,99143.38
2023-04-26T13:45:45.924Z,99137.93
2023-04-26T13:48:13.196Z,99140.50
2023-04-26T13:50:40.233Z,99134.86
2023-04-26T13:53:07.499Z,99133.11
2023-04-26T13:55:34.247Z,99136.93
2023-04-26T13:58:01.136Z,99140.27
2023-04-26T14:00:28.170Z,99141.19
2023-04-26T14:02:55.136Z,99146.44
2023-04-26T14:05:23.780Z,99148.08
2023-04-26T14:10:17.639Z,99145.52
2023-04-26T14:12:44.386Z,99140.23
2023-04-26T14:15:12.327Z,99148.98
2023-04-26T14:17:39.179Z,99143.10
2023-04-26T14:20:08.451Z,99146.97
2023-04-26T14:22:35.909Z,99145.52
2023-04-26T14:25:02.674Z,99145.16
2023-04-26T14:27:29.502Z,99146.42
2023-04-26T14:29:56.352Z,99149.64
2023-04-26T14:32:23.269Z,99146.59
2023-04-26T14:34:50.070Z,99146.27
2023-04-26T14:37:16.828Z,99148.45
2023-04-26T14:39:43.621Z,99156.24
2023-04-26T14:42:16.701Z,99152.86
2023-04-26T14:44:44.115Z,99153.77
2023-04-26T14:47:11.094Z,99161.95
2023-04-26T14:49:37.868Z,99155.66
2023-04-26T14:52:04.879Z,99159.77
2023-04-26T14:54:31.798Z,99164.41
2023-04-26T14:56:58.476Z,99158.60
2023-04-26T14:59:25.304Z,99155.92
2023-04-26T15:01:53.481Z,99159.60
2023-04-26T15:04:20.712Z,99157.89
2023-04-26T15:06:47.619Z,99159.20
2023-04-26T15:09:14.923Z,99161.89
2023-04-26T15:11:41.638Z,99159.20
2023-04-26T15:14:08.818Z,99163.77
2023-04-26T15:16:35.668Z,99155.75
2023-04-26T15:19:02.595Z,99154.24
2023-04-26T15:21:29.377Z,99154.13
2023-04-26T15:23:59.252Z,99147.48
2023-04-26T15:26:26.143Z,99148.62
2023-04-26T15:28:53.349Z,99145.83
2023-04-26T15:31:20.864Z,99146.17
2023-04-26T15:33:48.362Z,99145.87
2023-04-26T15:36:16.465Z,99139.27
2023-04-26T15:38:45.561Z,99142.18
2023-04-26T15:41:12.381Z,99137.23
2023-04-26T15:43:39.163Z,99138.99
2023-04-26T15:46:06.011Z,99132.95
2023-04-26T15:48:32.903Z,99133.12
2023-04-26T15:50:59.638Z,99137.38
2023-04-26T15:53:26.984Z,99139.40
2023-04-26T15:55:53.737Z,99135.98
2023-04-26T15:58:20.463Z,99138.63
2023-04-26T16:00:47.267Z,99137.11
2023-04-26T16:03:14.087Z,99139.38
2023-04-26T16:05:41.036Z,99139.63
2023-04-26T16:08:07.785Z,99142.19
2023-04-26T16:10:38.194Z,99140.81
2023-04-26T16:13:05.222Z,99137.94
2023-04-26T16:15:31.979Z,99143.25
2023-04-26T16:17:58.787Z,99146.52
2023-04-26T16:20:26.148Z,99148.88
2023-04-26T16:22:53.136Z,99148.23
2023-04-26T16:25:19.853Z,99149.65
2023-04-26T16:27:46.668Z,99154.25
2023-04-26T16:30:13.838Z,99156.00
2023-04-26T16:32:40.836Z,99155.26
2023-04-26T16:35:08.980Z,99155.68
2023-04-26T16:37:35.906Z,99156.44
2023-04-26T16:40:04.923Z,99157.03
2023-04-26T16:42:31.737Z,99154.80
2023-04-26T16:44:58.574Z,99156.22
2023-04-26T16:47:25.409Z,99153.77
2023-04-26T16:49:52.357Z,99158.21
2023-04-26T16:52:19.126Z,99158.15
2023-04-26T16:54:45.914Z,99154.44
2023-04-26T16:57:14.154Z,99157.49
2023-04-26T16:59:40.938Z,99151.98
2023-04-26T17:02:07.909Z,99153.64
2023-04-26T17:04:34.875Z,99154.17
2023-04-26T17:07:01.882Z,99156.23
2023-04-26T17:09:28.633Z,99155.41
2023-04-26T17:11:55.500Z,99152.88
2023-04-26T17:14:22.362Z,99154.39
2023-04-26T17:16:49.167Z,99153.33
2023-04-26T17:19:15.901Z,99155.85
2023-04-26T17:21:42.713Z,99158.21
2023-04-26T17:24:09.561Z,99156.44
2023-04-26T17:26:36.968Z,99165.48
2023-04-26T17:29:03.796Z,99164.74
2023-04-26T17:31:30.773Z,99164.11
2023-04-26T17:33:57.562Z,99163.95
2023-04-26T17:36:24.534Z,99168.68
2023-04-26T17:38:51.387Z,99169.27
2023-04-26T17:41:18.319Z,99170.63
2023-04-26T17:43:45.497Z,99171.52
2023-04-26T17:46:53.514Z,99180.42
2023-04-26T17:49:22.338Z,99175.84
2023-04-26T17:51:49.065Z,99182.27
2023-04-26T17:54:16.062Z,99179.91
2023-04-26T17:56:43.641Z,99185.50
2023-04-26T17:59:10.428Z,99184.61
2023-04-26T18:01:37.367Z,99181.15
2023-04-26T18:04:04.569Z,99184.02
2023-04-26T18:06:31.877Z,99182.49
2023-04-26T18:08:58.598Z,99183.80
2023-04-26T18:11:26.117Z,99188.59
2023-04-26T18:13:53.293Z,99189.94
2023-04-26T18:16:20.122Z,99188.86
2023-04-26T18:18:46.949Z,99194.21
2023-04-26T18:21:13.864Z,99198.95
2023-04-26T18:23:42.120Z,99203.68
2023-04-26T18:26:09.741Z,99206.10
2023-04-26T18:28:37.588Z,99208.88
2023-04-26T18:31:04.446Z,99208.64
2023-04-26T18:33:32.093Z,99211.39
2023-04-26T18:35:58.828Z,99210.72
2023-04-26T18:38:25.633Z,99209.13
2023-04-26T18:41:24.224Z,99213.05
2023-04-26T18:43:51.083Z,99210.27
2023-04-26T18:46:17.913Z,99207.79
2023-04-26T18:48:44.681Z,99206.52
2023-04-26T18:51:11.418Z,99207.21
2023-04-26T18:53:41.180Z,99211.97
2023-04-26T18:56:07.964Z,99211.86
2023-04-26T18:58:34.782Z,99206.63
2023-04-26T19:01:01.908Z,99213.31
2023-04-26T19:03:28.866Z,99212.82
2023-04-26T19:05:55.888Z,99214.89
2023-04-26T19:08:24.014Z,99212.60
2023-04-26T19:10:50.782Z,99215.52
2023-04-26T19:13:18.769Z,99209.13
2023-04-26T19:15:45.870Z,99209.95
2023-04-26T19:18:12.704Z,99205.05
2023-04-26T19:20:40.008Z,99200.69
2023-04-26T19:23:06.908Z,99204.27
2023-04-26T19:25:34.390Z,99202.49
2023-04-26T19:28:01.108Z,99200.42
2023-04-26T19:30:27.854Z,99202.42
2023-04-26T19:32:54.872Z,99210.49
2023-04-26T19:35:21.761Z,99211.98
2023-04-26T19:37:48.532Z,99214.83
2023-04-26T19:40:15.423Z,99215.14
2023-04-26T19:42:42.234Z,99210.14
2023-04-26T19:45:09.407Z,99201.95
2023-04-26T19:47:36.197Z,99204.76
2023-04-26T19:50:04.060Z,99205.25
2023-04-26T19:52:31.036Z,99209.42
2023-04-26T19:54:57.795Z,99213.69
2023-04-26T19:57:24.644Z,99210.14
2023-04-26T19:59:51.347Z,99210.41
2023-04-26T20:02:18.184Z,99206.02
2023-04-26T20:04:45.123Z,99205.11
2023-04-26T20:07:11.963Z,99206.60
2023-04-26T20:09:39.799Z,99203.14
2023-04-26T20:12:07.055Z,99202.17
2023-04-26T20:14:33.997Z,99200.22
2023-04-26T20:17:02.475Z,99201.52
2023-04-26T20:19:29.615Z,99200.98
2023-04-26T20:21:56.683Z,99197.45
2023-04-26T20:24:24.304Z,99189.70
2023-04-26T20:26:51.078Z,99192.41
2023-04-26T20:29:17.776Z,99191.27
2023-04-26T20:31:44.581Z,99190.23
2023-04-26T20:34:11.830Z,99186.91
2023-04-26T20:36:38.655Z,99186.06
2023-04-26T20:39:05.750Z,99186.46
2023-04-26T20:41:32.885Z,99186.16
2023-04-26T20:43:59.643Z,99189.48
2023-04-26T20:46:27.099Z,99194.61
2023-04-26T20:48:54.069Z,99194.65
2023-04-26T20:51:20.842Z,99197.87
2023-04-26T20:53:47.695Z,99199.10
2023-04-26T20:56:14.413Z,99206.61
2023-04-26T20:58:41.197Z,99205.79
2023-04-26T21:01:09.390Z,99204.99
2023-04-26T21:03:36.492Z,99206.73
2023-04-26T21:06:03.517Z,99211.16
2023-04-26T21:08:30.254Z,99208.80
2023-04-26T21:10:57.133Z,99207.50
2023-04-26T21:13:24.079Z,99206.77
2023-04-26T21:15:50.982Z,99209.23
2023-04-26T21:18:18.059Z,99212.00
2023-04-26T21:20:44.963Z,99218.35
2023-04-26T21:23:11.963Z,99221.65
2023-04-26T21:25:38.804Z,99221.23
2023-04-26T21:28:06.060Z,99222.06
2023-04-26T21:30:33.406Z,99224.52
2023-04-26T21:33:00.261Z,99222.69
2023-04-26T21:35:27.201Z,99219.92
2023-04-26T21:37:54.136Z,99225.74
2023-04-26T21:40:21.018Z,99227.55
2023-04-26T21:43:04.037Z,99231.80
2023-04-26T21:45:32.183Z,99227.81
2023-04-26T21:47:59.101Z,99227.48
2023-04-26T21:50:26.069Z,99231.85
2023-04-26T21:52:52.903Z,99232.21
2023-04-26T21:55:19.753Z,99234.56
2023-04-26T21:57:46.727Z,99235.39
2023-04-26T22:00:14.172Z,99236.89
2023-04-26T22:02:41.507Z,99236.98
2023-04-26T22:05:08.653Z,99236.14
2023-04-26T22:07:35.614Z,99238.55
2023-04-26T22:10:03.067Z,99236.79
2023-04-26T22:12:29.865Z,99239.38
2023-04-26T22:14:57.062Z,99238.51
2023-04-26T22:17:24.029Z,99241.18
2023-04-26T22:19:51.585Z,99241.21
2023-04-26T22:22:18.404Z,99244.06
2023-04-26T22:24:45.484Z,99240.23
2023-04-26T22:27:12.495Z,99241.52
2023-04-26T22:29:39.336Z,99245.41
2023-04-26T22:32:06.436Z,99245.64
2023-04-26T22:34:33.331Z,99249.54
2023-04-26T22:37:13.183Z,99253.69
2023-04-26T22:39:46.997Z,99252.56
2023-04-26T22:42:13.974Z,99252.98
2023-04-26T22:44:42.046Z,99252.78
2023-04-26T22:47:08.857Z,99257.92
2023-04-26T22:49:35.667Z,99259.98
2023-04-26T22:52:09.782Z,99260.92
2023-04-26T22:54:44.135Z,99266.60
2023-04-26T22:57:11.477Z,99263.80
2023-04-26T22:59:38.455Z,99267.11
2023-04-26T23:02:05.334Z,99274.21
2023-04-26T23:04:32.575Z,99278.80
2023-04-26T23:06:59.492Z,99281.56
2023-04-26T23:09:26.420Z,99288.27
2023-04-26T23:11:53.555Z,99286.08
2023-04-26T23:14:20.383Z,99285.27
2023-04-26T23:16:47.316Z,99287.80
2023-04-26T23:19:14.576Z,99286.14
2023-04-26T23:21:41.815Z,99288.34
2023-04-26T23:24:08.676Z,99287.33
2023-04-26T23:26:35.531Z,99286.70
2023-04-26T23:29:02.349Z,99284.55
2023-04-26T23:31:29.274Z,99281.27
2023-04-26T23:33:56.366Z,99282.48
2023-04-26T23:36:23.315Z,99285.97
2023-04-26T23:38:50.148Z,99285.69
2023-04-26T23:41:16.960Z,99285.04
2023-04-26T23:43:43.978Z,99290.74
2023-04-26T23:46:11.026Z,99293.70
2023-04-26T23:48:37.936Z,99296.16
2023-04-26T23:51:05.162Z,99299.75
2023-04-26T23:53:32.030Z,99307.73
2023-04-26T23:55:58.849Z,99309.02
2023-04-26T23:58:26.023Z,99302.58
